createdAt,value
2018-06-10T00:03:19.792Z,67.2
2018-06-10T00:08:16.612Z,67
2018-06-10T00:13:13.118Z,66.8
2018-06-10T00:18:09.814Z,67.1
2018-06-10T00:23:06.593Z,67.1
2018-06-10T00:28:03.166Z,67
2018-06-10T00:32:59.481Z,67.5
2018-06-10T00:37:56.305Z,68.1
2018-06-10T00:42:52.957Z,67.7
2018-06-10T00:47:49.719Z,68.3
2018-06-10T00:52:46.518Z,67.8
2018-06-10T00:57:42.336Z,68
2018-06-10T01:02:39.249Z,68.4
2018-06-10T01:07:35.880Z,68.5
2018-06-10T01:12:32.299Z,67.9
2018-06-10T01:17:29.033Z,67.2
2018-06-10T01:22:25.850Z,67.2
2018-06-10T01:27:22.353Z,66.6
2018-06-10T01:32:19.066Z,66.5
2018-06-10T01:37:15.940Z,66.4
2018-06-10T01:42:12.908Z,66.2
2018-06-10T02:44:11.451Z,65.6
2018-06-10T02:49:07.830Z,65.6
2018-06-10T02:54:04.634Z,65.7
2018-06-10T02:59:01.436Z,65.7
2018-06-10T03:03:57.857Z,65.7
2018-06-10T03:08:54.658Z,65.7
2018-06-10T03:13:51.372Z,65.8
2018-06-10T03:18:48.219Z,65.6
2018-06-10T03:23:44.772Z,65.4
2018-06-10T03:28:41.263Z,65.3
2018-06-10T03:33:38.113Z,65.5
2018-06-10T03:38:34.705Z,65.2
2018-06-10T03:43:31.286Z,65.2
2018-06-10T03:48:28.195Z,65.4
2018-06-10T03:53:24.833Z,65.4
2018-06-10T03:58:21.226Z,65.3
2018-06-10T04:03:17.414Z,65.2
2018-06-10T04:08:13.895Z,65
2018-06-10T04:13:10.670Z,64.8
2018-06-10T04:18:07.171Z,64.6
2018-06-10T04:23:03.584Z,64.8
2018-06-10T04:28:00.279Z,64.7
2018-06-10T04:32:57.025Z,64.7
2018-06-10T04:37:53.344Z,64.7
2018-06-10T04:42:50.182Z,64.5
2018-06-10T04:47:46.812Z,64.3
2018-06-10T04:52:43.713Z,64.4
2018-06-10T04:57:40.080Z,64.1
2018-06-10T05:02:36.480Z,63.9
2018-06-10T05:07:33.320Z,63.8
2018-06-10T05:12:30.282Z,64
2018-06-10T05:17:26.696Z,63.7
2018-06-10T05:22:23.409Z,64
2018-06-10T05:27:19.865Z,63.8
2018-06-10T05:32:16.614Z,63.7
2018-06-10T05:37:13.636Z,63.8
2018-06-10T05:42:10.166Z,63.7
2018-06-10T05:47:07.030Z,63.7
2018-06-10T05:52:03.592Z,63.8
2018-06-10T05:57:00.128Z,63.4
2018-06-10T06:01:56.727Z,63.5
2018-06-10T06:06:53.056Z,63.4
2018-06-10T06:11:49.852Z,63.3
2018-06-10T06:16:46.483Z,63.1
2018-06-10T06:21:43.226Z,62.8
2018-06-10T06:26:39.869Z,62.6
2018-06-10T06:31:36.620Z,62.3
2018-06-10T06:36:33.024Z,62.2
2018-06-10T06:41:29.817Z,61.8
2018-06-10T06:46:25.831Z,61.8
2018-06-10T06:51:22.544Z,61.7
2018-06-10T06:56:19.112Z,61.3
2018-06-10T07:01:15.898Z,61.2
2018-06-10T07:06:12.327Z,61.1
2018-06-10T07:11:09.346Z,61
2018-06-10T07:16:03.858Z,60.7
2018-06-10T07:21:01.158Z,60.7
2018-06-10T07:25:56.987Z,60.4
2018-06-10T07:30:53.484Z,60.1
2018-06-10T07:35:50.011Z,59.9
2018-06-10T07:40:47.018Z,59.8
2018-06-10T07:45:43.529Z,59.6
2018-06-10T07:50:40.230Z,59
2018-06-10T07:55:36.841Z,59.1
2018-06-10T08:00:34.040Z,59.1
2018-06-10T08:05:30.689Z,58.8
2018-06-10T08:10:27.248Z,58.7
2018-06-10T08:15:24.049Z,58.5
2018-06-10T08:20:20.659Z,58.5
2018-06-10T08:25:17.288Z,58.5
2018-06-10T08:30:14.355Z,57.9
2018-06-10T08:35:11.081Z,57.6
2018-06-10T08:40:07.565Z,57.2
2018-06-10T08:45:04.556Z,56.8
2018-06-10T08:50:01.062Z,56.6
2018-06-10T08:54:57.728Z,56.6
2018-06-10T08:59:54.222Z,56.1
2018-06-10T09:04:50.566Z,56.2
2018-06-10T09:09:47.497Z,55.9
2018-06-10T09:14:44.456Z,56.1
2018-06-10T09:19:41.394Z,55.9
2018-06-10T09:24:38.935Z,55.8
2018-06-10T09:29:35.150Z,55.6
2018-06-10T09:34:32.010Z,56.6
2018-06-10T09:39:28.767Z,59.5
2018-06-10T09:44:25.159Z,60.2
2018-06-10T09:49:21.960Z,59
2018-06-10T09:54:18.570Z,59.8
2018-06-10T09:59:14.979Z,59.9
2018-06-10T10:04:11.942Z,59.1
2018-06-10T10:09:08.607Z,59.9
2018-06-10T10:14:05.443Z,58.8
2018-06-10T10:19:02.032Z,59.5
2018-06-10T10:23:58.808Z,59
2018-06-10T10:28:55.567Z,59.3
2018-06-10T10:33:52.265Z,59.1
2018-06-10T10:38:49.065Z,59.3
2018-06-10T10:43:45.607Z,57.7
2018-06-10T10:48:42.582Z,57.3
2018-06-10T10:53:39.704Z,57.3
2018-06-10T10:58:36.795Z,57.4
2018-06-10T11:03:33.709Z,55.5
2018-06-10T11:08:30.503Z,54.9
2018-06-10T11:13:27.627Z,55.7
2018-06-10T11:18:24.406Z,55.4
2018-06-10T11:23:21.019Z,54.2
2018-06-10T11:28:17.847Z,52.8
2018-06-10T11:33:14.704Z,50
2018-06-10T11:38:11.413Z,48.9
2018-06-10T11:43:08.689Z,48.4
2018-06-10T11:48:05.844Z,47.4
2018-06-10T11:53:02.246Z,47.1
2018-06-10T11:57:59.094Z,46.4
2018-06-10T12:02:55.520Z,45.8
2018-06-10T12:07:52.638Z,45.3
2018-06-10T12:12:49.389Z,45
2018-06-10T12:17:46.094Z,44.6
2018-06-10T12:22:42.787Z,45.4
2018-06-10T12:27:39.734Z,44.7
2018-06-10T12:32:36.693Z,43.6
2018-06-10T12:37:33.511Z,43.6
2018-06-10T12:42:30.184Z,43.8
2018-06-10T12:47:26.839Z,43.3
2018-06-10T12:52:23.655Z,42.9
2018-06-10T12:57:20.344Z,42.8
2018-06-10T13:02:16.945Z,41.3
2018-06-10T13:07:14.078Z,41.7
2018-06-10T13:12:11.440Z,40.3
2018-06-10T13:17:08.568Z,39.1
2018-06-10T13:22:05.288Z,39.6
2018-06-10T13:27:02.491Z,39.8
2018-06-10T13:31:59.340Z,39.8
2018-06-10T13:36:55.844Z,39.7
2018-06-10T13:41:52.805Z,40.2
2018-06-10T13:46:49.802Z,40.7
2018-06-10T13:51:46.667Z,41.2
2018-06-10T13:56:43.062Z,42.1
2018-06-10T14:01:39.700Z,43.2
2018-06-10T14:06:36.098Z,43.9
2018-06-10T14:11:32.553Z,43.5
2018-06-10T14:16:29.346Z,42.9
2018-06-10T14:21:26.059Z,43.4
2018-06-10T14:26:23.110Z,43.5
2018-06-10T14:31:19.711Z,43.5
2018-06-10T14:36:16.321Z,43.2
2018-06-10T14:41:12.695Z,43
2018-06-10T14:46:10.045Z,42.9
2018-06-10T14:51:07.052Z,43.3
2018-06-10T14:56:03.999Z,44
2018-06-10T15:01:00.699Z,44.4
2018-06-10T15:05:57.745Z,44.7
2018-06-10T15:10:54.159Z,45.1
2018-06-10T15:15:51.022Z,45.4
2018-06-10T15:20:47.784Z,45.6
2018-06-10T15:25:44.079Z,45.9
2018-06-10T15:30:40.804Z,45.9
2018-06-10T15:35:37.610Z,46.1
2018-06-10T15:40:34.068Z,45.9
2018-06-10T15:45:30.490Z,45.7
2018-06-10T15:50:27.386Z,45.9
2018-06-10T15:55:24.138Z,46.9
2018-06-10T16:00:21.014Z,47.4
2018-06-10T16:05:17.677Z,47.5
2018-06-10T16:10:14.103Z,48.1
2018-06-10T16:15:10.888Z,48.1
2018-06-10T16:20:07.602Z,48.5
2018-06-10T16:25:03.737Z,48.5
2018-06-10T16:30:00.578Z,48.3
2018-06-10T16:34:57.165Z,48.8
2018-06-10T16:39:53.233Z,49
2018-06-10T16:44:49.875Z,48.3
2018-06-10T16:49:46.112Z,48
2018-06-10T16:54:43.065Z,48
2018-06-10T16:59:39.920Z,47.8
2018-06-10T17:04:36.743Z,47.8
2018-06-10T17:09:33.212Z,48.3
2018-06-10T17:14:29.410Z,48.9
2018-06-10T17:19:26.408Z,49.6
2018-06-10T17:24:23.490Z,50.1
2018-06-10T17:29:19.930Z,50.7
2018-06-10T17:34:17.327Z,51
2018-06-10T17:39:13.468Z,51.2
2018-06-10T17:44:09.877Z,51.6
2018-06-10T17:49:06.213Z,51.8
2018-06-10T17:54:02.991Z,52.1
2018-06-10T17:58:59.773Z,52.5
2018-06-10T18:03:56.396Z,52.7
2018-06-10T18:08:52.444Z,53.1
2018-06-10T18:13:49.080Z,53.4
2018-06-10T18:18:45.762Z,53.7
2018-06-10T18:23:42.156Z,54.1
2018-06-10T18:28:38.688Z,54
2018-06-10T18:33:35.357Z,54.2
2018-06-10T18:38:32.110Z,54.5
2018-06-10T18:43:28.528Z,54.6
2018-06-10T18:48:25.237Z,54.7
2018-06-10T18:53:21.900Z,54.6
2018-06-10T18:58:18.402Z,54.5
2018-06-10T19:03:14.882Z,54.6
2018-06-10T19:08:11.634Z,54.5
2018-06-10T19:13:08.143Z,54.6
2018-06-10T19:18:04.553Z,54.2
2018-06-10T19:23:01.052Z,54.1
2018-06-10T19:27:57.690Z,54.3
2018-06-10T19:32:54.132Z,55.2
2018-06-10T19:37:50.562Z,55.8
2018-06-10T19:42:47.354Z,55.9
2018-06-10T19:47:43.691Z,56.1
2018-06-10T19:52:40.219Z,56.1
2018-06-10T19:57:36.889Z,56
2018-06-10T20:02:33.422Z,56.1
2018-06-10T20:07:30.087Z,56.1
2018-06-10T20:12:26.429Z,56.5
2018-06-10T20:17:23.135Z,56.8
2018-06-10T20:22:20.028Z,56.9
2018-06-10T20:27:16.618Z,56.6
2018-06-10T20:32:13.453Z,56.6
2018-06-10T20:37:09.912Z,56.7
2018-06-10T20:42:06.669Z,56.7
2018-06-10T20:47:03.011Z,56.6
2018-06-10T20:51:59.777Z,56.6
2018-06-10T20:56:56.426Z,56.8
2018-06-10T21:01:52.777Z,56.7
2018-06-10T21:06:49.625Z,56.7
2018-06-10T21:11:46.007Z,56.7
2018-06-10T21:16:42.591Z,56.8
2018-06-10T21:21:39.477Z,56.8
2018-06-10T21:26:35.836Z,56.4
2018-06-10T21:31:32.625Z,56.3
2018-06-10T21:36:29.272Z,56.2
2018-06-10T21:41:25.875Z,55.8
2018-06-10T21:46:22.394Z,55.7
2018-06-10T21:51:19.198Z,55.5
2018-06-10T21:56:15.158Z,55.5
2018-06-10T22:01:11.364Z,55.4
2018-06-10T22:06:07.623Z,55.5
2018-06-10T22:11:04.440Z,55.6
2018-06-10T22:16:01.164Z,55.7
2018-06-10T22:20:57.653Z,55.8
2018-06-10T22:25:54.003Z,56
2018-06-10T22:30:50.893Z,56.1
2018-06-10T22:35:47.220Z,56.7
2018-06-10T22:40:44.035Z,56.9
2018-06-10T22:45:40.464Z,57.3
2018-06-10T22:50:37.568Z,57.6
2018-06-10T22:55:34.353Z,58.2
2018-06-10T23:00:31.111Z,58.3
2018-06-10T23:05:27.825Z,58.7
2018-06-10T23:10:24.616Z,59.3
2018-06-10T23:15:21.183Z,59.3
2018-06-10T23:20:18.176Z,59.3
2018-06-10T23:25:14.703Z,59.5
2018-06-10T23:30:11.262Z,59.3
2018-06-10T23:35:07.573Z,59.3
2018-06-10T23:40:04.599Z,59.3
2018-06-10T23:45:02.118Z,59
2018-06-10T23:49:58.193Z,58.6
2018-06-10T23:54:54.779Z,58.4
2018-06-10T23:59:51.138Z,58
